sensor_id;sensor_type;location;lat;lon;timestamp;pressure;altitude;pressure_sealevel;temperature;humidity
33265;BME280;31404;53.974;-1.086;2023-07-20T00:05:36;101574.51;;;16.08;85.51
33265;BME280;31404;53.974;-1.086;2023-07-20T00:10:35;101578.09;;;16.56;83.44
33265;BME280;31404;53.974;-1.086;2023-07-20T00:15:36;101572.79;;;16.94;82.31
33265;BME280;31404;53.974;-1.086;2023-07-20T00:20:36;101569.46;;;16.43;83.37
33265;BME280;31404;53.974;-1.086;2023-07-20T00:25:35;101562.13;;;15.97;87.71
33265;BME280;31404;53.974;-1.086;2023-07-20T00:30:36;101558.73;;;16.65;84.03
33265;BME280;31404;53.974;-1.086;2023-07-20T00:35:36;101559.13;;;16.52;84.31
33265;BME280;31404;53.974;-1.086;2023-07-20T00:40:36;101561.30;;;16.71;84.11
33265;BME280;31404;53.974;-1.086;2023-07-20T00:45:36;101560.14;;;15.84;87.11
33265;BME280;31404;53.974;-1.086;2023-07-20T00:50:36;101560.49;;;14.78;92.91
33265;BME280;31404;53.974;-1.086;2023-07-20T00:55:36;101556.71;;;15.39;91.03
33265;BME280;31404;53.974;-1.086;2023-07-20T01:00:36;101552.52;;;15.58;89.73
33265;BME280;31404;53.974;-1.086;2023-07-20T01:15:35;101547.16;;;15.15;90.09
33265;BME280;31404;53.974;-1.086;2023-07-20T01:20:36;101541.32;;;16.13;85.51
33265;BME280;31404;53.974;-1.086;2023-07-20T01:35:36;101545.46;;;14.18;94.70
33265;BME280;31404;53.974;-1.086;2023-07-20T01:40:36;101546.10;;;14.02;94.38
33265;BME280;31404;53.974;-1.086;2023-07-20T01:45:35;101556.27;;;13.71;97.78
33265;BME280;31404;53.974;-1.086;2023-07-20T01:50:35;101551.82;;;15.51;87.69
33265;BME280;31404;53.974;-1.086;2023-07-20T01:55:35;101556.93;;;14.98;88.62
33265;BME280;31404;53.974;-1.086;2023-07-20T02:00:37;101546.85;;;14.86;88.45
33265;BME280;31404;53.974;-1.086;2023-07-20T02:05:35;101539.62;;;15.82;83.58
33265;BME280;31404;53.974;-1.086;2023-07-20T02:10:36;101541.55;;;14.86;86.03
33265;BME280;31404;53.974;-1.086;2023-07-20T02:15:35;101541.35;;;13.97;91.66
33265;BME280;31404;53.974;-1.086;2023-07-20T02:20:36;101535.44;;;13.73;93.14
33265;BME280;31404;53.974;-1.086;2023-07-20T02:25:35;101533.92;;;13.73;93.40
33265;BME280;31404;53.974;-1.086;2023-07-20T02:30:38;101523.11;;;14.21;87.52
33265;BME280;31404;53.974;-1.086;2023-07-20T02:35:36;101527.96;;;13.88;90.82
33265;BME280;31404;53.974;-1.086;2023-07-20T02:40:35;101522.66;;;14.50;88.77
33265;BME280;31404;53.974;-1.086;2023-07-20T02:45:39;101513.47;;;15.24;84.71
33265;BME280;31404;53.974;-1.086;2023-07-20T02:50:36;101515.37;;;13.09;92.10
33265;BME280;31404;53.974;-1.086;2023-07-20T02:55:35;101518.60;;;10.53;100.00
33265;BME280;31404;53.974;-1.086;2023-07-20T03:00:36;101517.60;;;12.17;100.00
33265;BME280;31404;53.974;-1.086;2023-07-20T03:05:35;101519.29;;;13.11;97.89
33265;BME280;31404;53.974;-1.086;2023-07-20T03:15:35;101516.38;;;13.48;95.31
33265;BME280;31404;53.974;-1.086;2023-07-20T03:20:35;101516.52;;;13.59;94.31
33265;BME280;31404;53.974;-1.086;2023-07-20T03:25:36;101510.69;;;14.23;90.27
33265;BME280;31404;53.974;-1.086;2023-07-20T03:30:35;101507.19;;;14.21;89.37
33265;BME280;31404;53.974;-1.086;2023-07-20T03:35:35;101512.81;;;13.72;94.31
33265;BME280;31404;53.974;-1.086;2023-07-20T03:40:36;101503.93;;;13.91;94.33
33265;BME280;31404;53.974;-1.086;2023-07-20T03:45:36;101505.09;;;14.38;88.70
33265;BME280;31404;53.974;-1.086;2023-07-20T03:50:36;101505.42;;;14.17;91.48
33265;BME280;31404;53.974;-1.086;2023-07-20T03:55:35;101501.11;;;14.92;88.02
33265;BME280;31404;53.974;-1.086;2023-07-20T04:00:35;101496.68;;;15.74;83.62
33265;BME280;31404;53.974;-1.086;2023-07-20T04:05:35;101500.62;;;14.88;85.16
33265;BME280;31404;53.974;-1.086;2023-07-20T04:10:35;101492.66;;;15.80;82.77
33265;BME280;31404;53.974;-1.086;2023-07-20T04:15:35;101496.99;;;15.00;85.15
33265;BME280;31404;53.974;-1.086;2023-07-20T04:20:35;101492.08;;;14.31;88.66
33265;BME280;31404;53.974;-1.086;2023-07-20T04:25:35;101492.59;;;14.56;88.03
33265;BME280;31404;53.974;-1.086;2023-07-20T04:30:36;101497.52;;;13.99;93.82
33265;BME280;31404;53.974;-1.086;2023-07-20T04:40:36;101507.28;;;13.61;94.70
33265;BME280;31404;53.974;-1.086;2023-07-20T04:45:36;101500.99;;;14.10;92.96
33265;BME280;31404;53.974;-1.086;2023-07-20T04:50:35;101495.08;;;14.89;88.31
33265;BME280;31404;53.974;-1.086;2023-07-20T04:55:35;101496.69;;;14.37;90.40
33265;BME280;31404;53.974;-1.086;2023-07-20T05:00:37;101495.93;;;14.36;90.12
33265;BME280;31404;53.974;-1.086;2023-07-20T05:05:35;101494.17;;;15.51;85.41
33265;BME280;31404;53.974;-1.086;2023-07-20T05:10:36;101496.04;;;15.52;84.80
33265;BME280;31404;53.974;-1.086;2023-07-20T05:15:36;101495.75;;;14.43;90.22
33265;BME280;31404;53.974;-1.086;2023-07-20T05:20:36;101505.19;;;14.75;87.96
33265;BME280;31404;53.974;-1.086;2023-07-20T05:25:37;101495.41;;;15.79;84.09
33265;BME280;31404;53.974;-1.086;2023-07-20T05:30:36;101497.36;;;15.81;84.62
33265;BME280;31404;53.974;-1.086;2023-07-20T05:35:36;101499.15;;;15.93;82.85
33265;BME280;31404;53.974;-1.086;2023-07-20T05:40:41;101503.12;;;15.17;88.43
33265;BME280;31404;53.974;-1.086;2023-07-20T05:45:35;101504.06;;;15.37;86.30
33265;BME280;31404;53.974;-1.086;2023-07-20T05:50:36;101499.78;;;16.24;83.38
33265;BME280;31404;53.974;-1.086;2023-07-20T05:55:35;101497.19;;;14.98;88.41
33265;BME280;31404;53.974;-1.086;2023-07-20T06:00:36;101494.48;;;14.71;90.52
33265;BME280;31404;53.974;-1.086;2023-07-20T06:05:35;101490.12;;;15.85;86.31
33265;BME280;31404;53.974;-1.086;2023-07-20T06:10:36;101494.03;;;15.59;87.77
33265;BME280;31404;53.974;-1.086;2023-07-20T06:15:36;101503.28;;;14.73;91.52
33265;BME280;31404;53.974;-1.086;2023-07-20T06:20:36;101501.76;;;15.26;90.75
33265;BME280;31404;53.974;-1.086;2023-07-20T06:25:35;101495.17;;;15.98;86.94
33265;BME280;31404;53.974;-1.086;2023-07-20T06:30:35;101495.38;;;14.56;93.03
33265;BME280;31404;53.974;-1.086;2023-07-20T06:35:35;101502.58;;;14.91;93.91
33265;BME280;31404;53.974;-1.086;2023-07-20T06:40:35;101500.26;;;15.34;92.65
33265;BME280;31404;53.974;-1.086;2023-07-20T06:45:36;101496.35;;;16.49;86.51
33265;BME280;31404;53.974;-1.086;2023-07-20T06:50:36;101501.64;;;15.10;93.79
33265;BME280;31404;53.974;-1.086;2023-07-20T06:55:36;101496.36;;;15.35;94.43
33265;BME280;31404;53.974;-1.086;2023-07-20T07:00:36;101497.86;;;14.99;93.73
33265;BME280;31404;53.974;-1.086;2023-07-20T07:05:37;101500.59;;;14.01;100.00
33265;BME280;31404;53.974;-1.086;2023-07-20T07:10:36;101500.24;;;14.80;98.09
33265;BME280;31404;53.974;-1.086;2023-07-20T07:15:36;101495.84;;;14.98;97.11
33265;BME280;31404;53.974;-1.086;2023-07-20T07:20:35;101493.78;;;16.00;93.65
33265;BME280;31404;53.974;-1.086;2023-07-20T07:25:36;101496.05;;;15.59;91.53
33265;BME280;31404;53.974;-1.086;2023-07-20T07:30:35;101501.09;;;15.57;88.17
33265;BME280;31404;53.974;-1.086;2023-07-20T07:35:38;101502.18;;;15.40;90.43
33265;BME280;31404;53.974;-1.086;2023-07-20T07:40:36;101510.64;;;13.60;100.00
33265;BME280;31404;53.974;-1.086;2023-07-20T07:45:36;101507.19;;;14.79;97.35
33265;BME280;31404;53.974;-1.086;2023-07-20T07:50:35;101509.53;;;12.86;100.00
33265;BME280;31404;53.974;-1.086;2023-07-20T07:55:36;101500.73;;;14.17;100.00
33265;BME280;31404;53.974;-1.086;2023-07-20T08:00:36;101502.02;;;14.77;97.41
33265;BME280;31404;53.974;-1.086;2023-07-20T08:05:36;101496.31;;;14.64;98.26
33265;BME280;31404;53.974;-1.086;2023-07-20T08:10:35;101492.54;;;15.30;93.11
33265;BME280;31404;53.974;-1.086;2023-07-20T08:15:35;101497.96;;;14.92;93.44
33265;BME280;31404;53.974;-1.086;2023-07-20T08:20:36;101497.82;;;14.62;94.18
33265;BME280;31404;53.974;-1.086;2023-07-20T08:25:37;101504.42;;;15.19;92.44
33265;BME280;31404;53.974;-1.086;2023-07-20T08:35:36;101511.71;;;13.65;98.30
33265;BME280;31404;53.974;-1.086;2023-07-20T08:45:36;101508.89;;;12.96;100.00
33265;BME280;31404;53.974;-1.086;2023-07-20T08:50:38;101505.24;;;14.21;98.59
33265;BME280;31404;53.974;-1.086;2023-07-20T08:55:36;101507.56;;;14.35;98.68
33265;BME280;31404;53.974;-1.086;2023-07-20T09:00:36;101513.13;;;13.66;99.97
33265;BME280;31404;53.974;-1.086;2023-07-20T09:05:35;101499.30;;;13.95;93.16
33265;BME280;31404;53.974;-1.086;2023-07-20T09:10:35;101506.82;;;13.07;99.72
33265;BME280;31404;53.974;-1.086;2023-07-20T09:15:36;101508.57;;;12.98;100.00
33265;BME280;31404;53.974;-1.086;2023-07-20T09:20:41;101499.94;;;14.25;85.25
33265;BME280;31404;53.974;-1.086;2023-07-20T09:25:36;101500.86;;;14.70;85.24
33265;BME280;31404;53.974;-1.086;2023-07-20T09:30:36;101499.15;;;15.02;82.90
33265;BME280;31404;53.974;-1.086;2023-07-20T09:35:36;101503.31;;;12.45;92.04
33265;BME280;31404;53.974;-1.086;2023-07-20T09:40:38;101492.64;;;14.13;84.38
33265;BME280;31404;53.974;-1.086;2023-07-20T09:50:40;101493.46;;;14.40;81.23
33265;BME280;31404;53.974;-1.086;2023-07-20T09:55:37;101492.61;;;13.71;82.68
33265;BME280;31404;53.974;-1.086;2023-07-20T10:00:37;101491.76;;;14.53;80.95
33265;BME280;31404;53.974;-1.086;2023-07-20T10:10:36;101481.00;;;15.43;75.80
33265;BME280;31404;53.974;-1.086;2023-07-20T10:15:40;101482.38;;;15.04;73.98
33265;BME280;31404;53.974;-1.086;2023-07-20T10:20:38;101472.01;;;16.59;69.02
33265;BME280;31404;53.974;-1.086;2023-07-20T10:25:36;101469.95;;;16.59;67.83
33265;BME280;31404;53.974;-1.086;2023-07-20T10:30:37;101473.02;;;13.29;79.45
33265;BME280;31404;53.974;-1.086;2023-07-20T10:40:39;101463.47;;;16.84;67.67
33265;BME280;31404;53.974;-1.086;2023-07-20T10:45:41;101455.91;;;17.26;68.68
33265;BME280;31404;53.974;-1.086;2023-07-20T10:50:36;101461.33;;;16.78;68.59
33265;BME280;31404;53.974;-1.086;2023-07-20T11:00:35;101449.37;;;17.57;64.01
33265;BME280;31404;53.974;-1.086;2023-07-20T11:05:37;101444.03;;;17.24;63.24
33265;BME280;31404;53.974;-1.086;2023-07-20T11:10:36;101444.66;;;16.54;65.48
33265;BME280;31404;53.974;-1.086;2023-07-20T11:20:36;101437.16;;;15.06;66.93
33265;BME280;31404;53.974;-1.086;2023-07-20T11:25:38;101433.21;;;15.37;64.00
33265;BME280;31404;53.974;-1.086;2023-07-20T11:30:37;101439.92;;;14.36;69.19
33265;BME280;31404;53.974;-1.086;2023-07-20T11:35:36;101432.21;;;14.49;65.79
33265;BME280;31404;53.974;-1.086;2023-07-20T11:40:35;101427.55;;;14.84;65.54
33265;BME280;31404;53.974;-1.086;2023-07-20T11:45:36;101427.45;;;13.97;67.44
33265;BME280;31404;53.974;-1.086;2023-07-20T11:55:36;101420.80;;;15.90;62.15
33265;BME280;31404;53.974;-1.086;2023-07-20T12:00:38;101415.72;;;16.41;62.49
33265;BME280;31404;53.974;-1.086;2023-07-20T12:05:35;101399.63;;;17.97;56.63
33265;BME280;31404;53.974;-1.086;2023-07-20T12:15:37;101400.07;;;15.82;59.14
33265;BME280;31404;53.974;-1.086;2023-07-20T12:20:37;101393.24;;;16.73;59.58
33265;BME280;31404;53.974;-1.086;2023-07-20T12:25:38;101378.07;;;19.17;54.82
33265;BME280;31404;53.974;-1.086;2023-07-20T12:30:37;101391.74;;;16.29;57.66
33265;BME280;31404;53.974;-1.086;2023-07-20T12:35:35;101392.30;;;15.96;61.07
33265;BME280;31404;53.974;-1.086;2023-07-20T12:40:36;101382.64;;;19.53;54.94
33265;BME280;31404;53.974;-1.086;2023-07-20T12:45:36;101378.08;;;17.82;54.72
33265;BME280;31404;53.974;-1.086;2023-07-20T12:50:36;101373.42;;;17.17;55.36
33265;BME280;31404;53.974;-1.086;2023-07-20T12:55:37;101377.68;;;16.19;58.18
33265;BME280;31404;53.974;-1.086;2023-07-20T13:00:36;101378.51;;;16.39;58.53
33265;BME280;31404;53.974;-1.086;2023-07-20T13:05:36;101372.19;;;16.44;58.03
33265;BME280;31404;53.974;-1.086;2023-07-20T13:10:37;101371.18;;;15.22;59.82
33265;BME280;31404;53.974;-1.086;2023-07-20T13:20:36;101368.92;;;14.04;65.94
33265;BME280;31404;53.974;-1.086;2023-07-20T13:25:36;101354.30;;;16.49;61.28
33265;BME280;31404;53.974;-1.086;2023-07-20T13:30:35;101352.08;;;17.95;55.54
33265;BME280;31404;53.974;-1.086;2023-07-20T13:35:36;101356.80;;;17.03;56.13
33265;BME280;31404;53.974;-1.086;2023-07-20T13:40:36;101356.52;;;17.08;55.47
33265;BME280;31404;53.974;-1.086;2023-07-20T13:45:35;101351.88;;;15.76;57.33
33265;BME280;31404;53.974;-1.086;2023-07-20T13:50:36;101347.52;;;16.03;58.60
33265;BME280;31404;53.974;-1.086;2023-07-20T13:55:36;101343.92;;;16.85;58.54
33265;BME280;31404;53.974;-1.086;2023-07-20T14:00:36;101333.32;;;17.48;56.50
33265;BME280;31404;53.974;-1.086;2023-07-20T14:05:35;101334.76;;;17.93;55.60
33265;BME280;31404;53.974;-1.086;2023-07-20T14:10:36;101334.93;;;16.92;58.40
33265;BME280;31404;53.974;-1.086;2023-07-20T14:15:36;101335.81;;;16.43;60.43
33265;BME280;31404;53.974;-1.086;2023-07-20T14:20:35;101338.51;;;16.04;62.66
33265;BME280;31404;53.974;-1.086;2023-07-20T14:25:36;101329.72;;;16.80;60.18
33265;BME280;31404;53.974;-1.086;2023-07-20T14:30:36;101329.90;;;15.60;63.11
33265;BME280;31404;53.974;-1.086;2023-07-20T14:35:35;101333.15;;;16.40;60.82
33265;BME280;31404;53.974;-1.086;2023-07-20T14:40:36;101332.20;;;15.72;61.93
33265;BME280;31404;53.974;-1.086;2023-07-20T14:45:36;101326.45;;;15.46;61.86
33265;BME280;31404;53.974;-1.086;2023-07-20T14:50:35;101320.55;;;14.70;63.26
33265;BME280;31404;53.974;-1.086;2023-07-20T14:55:37;101308.95;;;17.70;57.06
33265;BME280;31404;53.974;-1.086;2023-07-20T15:00:36;101310.05;;;16.65;56.91
33265;BME280;31404;53.974;-1.086;2023-07-20T15:05:35;101306.76;;;16.73;57.94
33265;BME280;31404;53.974;-1.086;2023-07-20T15:10:36;101302.61;;;16.69;58.05
33265;BME280;31404;53.974;-1.086;2023-07-20T15:15:35;101304.80;;;15.84;59.52
33265;BME280;31404;53.974;-1.086;2023-07-20T15:20:36;101300.81;;;16.38;58.56
33265;BME280;31404;53.974;-1.086;2023-07-20T15:25:34;101292.78;;;16.85;58.06
33265;BME280;31404;53.974;-1.086;2023-07-20T15:30:35;101306.37;;;16.03;62.12
33265;BME280;31404;53.974;-1.086;2023-07-20T15:35:37;101305.39;;;16.61;62.51
33265;BME280;31404;53.974;-1.086;2023-07-20T15:40:36;101309.41;;;15.28;67.02
33265;BME280;31404;53.974;-1.086;2023-07-20T15:45:36;101310.23;;;14.22;70.91
33265;BME280;31404;53.974;-1.086;2023-07-20T15:50:36;101315.92;;;14.11;69.30
33265;BME280;31404;53.974;-1.086;2023-07-20T15:55:35;101315.42;;;15.50;64.81
33265;BME280;31404;53.974;-1.086;2023-07-20T16:00:35;101319.11;;;12.75;73.60
33265;BME280;31404;53.974;-1.086;2023-07-20T16:05:35;101319.85;;;13.65;69.76
33265;BME280;31404;53.974;-1.086;2023-07-20T16:10:35;101312.74;;;14.01;68.45
33265;BME280;31404;53.974;-1.086;2023-07-20T16:15:35;101305.05;;;14.26;67.32
33265;BME280;31404;53.974;-1.086;2023-07-20T16:20:36;101307.73;;;14.34;65.23
33265;BME280;31404;53.974;-1.086;2023-07-20T16:25:35;101302.78;;;15.60;63.59
33265;BME280;31404;53.974;-1.086;2023-07-20T16:30:29;101302.06;;;14.97;63.22
33265;BME280;31404;53.974;-1.086;2023-07-20T16:35:36;101308.42;;;15.91;68.65
33265;BME280;31404;53.974;-1.086;2023-07-20T16:40:36;101303.37;;;17.09;67.66
33265;BME280;31404;53.974;-1.086;2023-07-20T16:45:35;101308.09;;;16.28;70.40
33265;BME280;31404;53.974;-1.086;2023-07-20T16:50:36;101302.29;;;17.33;66.67
33265;BME280;31404;53.974;-1.086;2023-07-20T16:55:35;101297.34;;;18.85;61.24
33265;BME280;31404;53.974;-1.086;2023-07-20T17:00:35;101292.06;;;18.64;60.27
33265;BME280;31404;53.974;-1.086;2023-07-20T17:05:36;101292.18;;;19.70;58.08
33265;BME280;31404;53.974;-1.086;2023-07-20T17:10:36;101289.70;;;19.00;59.68
33265;BME280;31404;53.974;-1.086;2023-07-20T17:15:35;101290.15;;;16.82;63.81
33265;BME280;31404;53.974;-1.086;2023-07-20T17:20:36;101294.16;;;14.50;73.17
33265;BME280;31404;53.974;-1.086;2023-07-20T17:25:36;101296.45;;;14.32;78.65
33265;BME280;31404;53.974;-1.086;2023-07-20T17:30:35;101299.04;;;13.08;82.26
33265;BME280;31404;53.974;-1.086;2023-07-20T17:35:36;101299.86;;;12.73;84.48
33265;BME280;31404;53.974;-1.086;2023-07-20T17:40:35;101301.30;;;13.65;83.05
33265;BME280;31404;53.974;-1.086;2023-07-20T17:45:36;101295.77;;;14.09;80.06
33265;BME280;31404;53.974;-1.086;2023-07-20T17:50:35;101294.90;;;13.18;84.30
33265;BME280;31404;53.974;-1.086;2023-07-20T17:55:35;101296.39;;;13.78;82.87
33265;BME280;31404;53.974;-1.086;2023-07-20T18:00:36;101291.63;;;13.35;85.52
33265;BME280;31404;53.974;-1.086;2023-07-20T18:05:36;101292.35;;;13.92;83.00
33265;BME280;31404;53.974;-1.086;2023-07-20T18:10:36;101293.83;;;13.15;89.26
33265;BME280;31404;53.974;-1.086;2023-07-20T18:15:35;101297.51;;;11.77;97.12
33265;BME280;31404;53.974;-1.086;2023-07-20T18:20:36;101289.65;;;14.12;86.02
33265;BME280;31404;53.974;-1.086;2023-07-20T18:25:36;101290.84;;;13.56;88.80
33265;BME280;31404;53.974;-1.086;2023-07-20T18:30:36;101291.41;;;13.93;85.46
33265;BME280;31404;53.974;-1.086;2023-07-20T18:35:36;101290.12;;;12.38;96.14
33265;BME280;31404;53.974;-1.086;2023-07-20T18:40:36;101281.58;;;12.68;91.92
33265;BME280;31404;53.974;-1.086;2023-07-20T18:45:37;101280.45;;;12.18;93.52
33265;BME280;31404;53.974;-1.086;2023-07-20T18:50:36;101274.86;;;13.29;90.70
33265;BME280;31404;53.974;-1.086;2023-07-20T18:55:35;101271.72;;;13.06;90.72
33265;BME280;31404;53.974;-1.086;2023-07-20T19:00:35;101277.20;;;12.34;93.14
33265;BME280;31404;53.974;-1.086;2023-07-20T19:05:35;101274.57;;;13.33;90.55
33265;BME280;31404;53.974;-1.086;2023-07-20T19:10:36;101276.76;;;13.56;88.10
33265;BME280;31404;53.974;-1.086;2023-07-20T19:15:35;101272.28;;;14.61;83.93
33265;BME280;31404;53.974;-1.086;2023-07-20T19:20:36;101271.89;;;15.82;77.71
33265;BME280;31404;53.974;-1.086;2023-07-20T19:25:37;101274.95;;;15.70;77.10
33265;BME280;31404;53.974;-1.086;2023-07-20T19:30:36;101277.20;;;12.99;90.64
33265;BME280;31404;53.974;-1.086;2023-07-20T19:35:36;101283.03;;;13.71;86.48
33265;BME280;31404;53.974;-1.086;2023-07-20T19:40:37;101282.08;;;14.26;82.09
33265;BME280;31404;53.974;-1.086;2023-07-20T19:45:37;101282.16;;;14.49;80.98
33265;BME280;31404;53.974;-1.086;2023-07-20T19:50:36;101289.02;;;13.80;82.52
33265;BME280;31404;53.974;-1.086;2023-07-20T19:55:36;101288.00;;;15.08;79.42
33265;BME280;31404;53.974;-1.086;2023-07-20T20:00:38;101293.15;;;15.78;75.93
33265;BME280;31404;53.974;-1.086;2023-07-20T20:05:36;101297.75;;;14.95;79.15
33265;BME280;31404;53.974;-1.086;2023-07-20T20:10:36;101306.55;;;14.94;79.95
33265;BME280;31404;53.974;-1.086;2023-07-20T20:20:36;101301.64;;;16.96;75.40
33265;BME280;31404;53.974;-1.086;2023-07-20T20:25:36;101304.65;;;18.06;72.53
33265;BME280;31404;53.974;-1.086;2023-07-20T20:30:37;101305.67;;;18.32;71.36
33265;BME280;31404;53.974;-1.086;2023-07-20T20:35:37;101306.82;;;17.77;71.77
33265;BME280;31404;53.974;-1.086;2023-07-20T20:40:35;101309.10;;;18.02;71.05
33265;BME280;31404;53.974;-1.086;2023-07-20T20:45:29;101304.72;;;19.03;69.35
33265;BME280;31404;53.974;-1.086;2023-07-20T20:50:36;101311.70;;;15.36;82.12
33265;BME280;31404;53.974;-1.086;2023-07-20T20:55:36;101316.13;;;15.95;78.92
33265;BME280;31404;53.974;-1.086;2023-07-20T21:00:37;101309.02;;;14.76;82.44
33265;BME280;31404;53.974;-1.086;2023-07-20T21:05:36;101317.08;;;12.48;93.33
33265;BME280;31404;53.974;-1.086;2023-07-20T21:10:37;101303.91;;;14.47;82.14
33265;BME280;31404;53.974;-1.086;2023-07-20T21:15:36;101305.58;;;13.58;82.62
33265;BME280;31404;53.974;-1.086;2023-07-20T21:20:36;101307.52;;;13.46;82.60
33265;BME280;31404;53.974;-1.086;2023-07-20T21:25:37;101305.84;;;12.65;86.63
33265;BME280;31404;53.974;-1.086;2023-07-20T21:30:36;101309.78;;;12.84;84.86
33265;BME280;31404;53.974;-1.086;2023-07-20T21:35:36;101304.03;;;13.04;84.73
33265;BME280;31404;53.974;-1.086;2023-07-20T21:40:36;101299.44;;;15.05;76.94
33265;BME280;31404;53.974;-1.086;2023-07-20T21:45:36;101296.86;;;13.31;80.50
33265;BME280;31404;53.974;-1.086;2023-07-20T21:50:36;101293.27;;;14.87;75.81
33265;BME280;31404;53.974;-1.086;2023-07-20T21:55:35;101289.92;;;15.23;75.92
33265;BME280;31404;53.974;-1.086;2023-07-20T22:00:35;101289.30;;;14.93;75.28
33265;BME280;31404;53.974;-1.086;2023-07-20T22:05:40;101289.22;;;14.32;77.34
33265;BME280;31404;53.974;-1.086;2023-07-20T22:10:35;101287.25;;;14.98;73.95
33265;BME280;31404;53.974;-1.086;2023-07-20T22:15:36;101285.41;;;14.23;74.66
33265;BME280;31404;53.974;-1.086;2023-07-20T22:20:36;101288.80;;;13.21;80.64
33265;BME280;31404;53.974;-1.086;2023-07-20T22:25:36;101288.44;;;13.47;78.89
33265;BME280;31404;53.974;-1.086;2023-07-20T22:30:36;101286.84;;;12.02;83.28
33265;BME280;31404;53.974;-1.086;2023-07-20T22:35:36;101284.35;;;12.72;80.86
33265;BME280;31404;53.974;-1.086;2023-07-20T22:40:36;101287.42;;;12.15;82.40
33265;BME280;31404;53.974;-1.086;2023-07-20T22:45:37;101286.80;;;12.33;82.66
33265;BME280;31404;53.974;-1.086;2023-07-20T22:50:36;101282.40;;;12.80;79.61
33265;BME280;31404;53.974;-1.086;2023-07-20T22:55:36;101285.45;;;12.80;78.03
33265;BME280;31404;53.974;-1.086;2023-07-20T23:00:37;101293.17;;;12.27;81.07
33265;BME280;31404;53.974;-1.086;2023-07-20T23:05:36;101288.25;;;12.79;80.94
33265;BME280;31404;53.974;-1.086;2023-07-20T23:10:35;101293.90;;;10.41;92.75
33265;BME280;31404;53.974;-1.086;2023-07-20T23:15:36;101291.24;;;13.38;79.07
33265;BME280;31404;53.974;-1.086;2023-07-20T23:20:37;101282.12;;;13.88;76.14
33265;BME280;31404;53.974;-1.086;2023-07-20T23:25:36;101278.75;;;12.67;81.92
33265;BME280;31404;53.974;-1.086;2023-07-20T23:30:36;101275.16;;;14.21;75.91
33265;BME280;31404;53.974;-1.086;2023-07-20T23:35:36;101273.56;;;13.89;77.40
33265;BME280;31404;53.974;-1.086;2023-07-20T23:40:36;101277.28;;;13.32;78.19
33265;BME280;31404;53.974;-1.086;2023-07-20T23:45:36;101278.62;;;11.39;88.24
33265;BME280;31404;53.974;-1.086;2023-07-20T23:50:36;101278.60;;;12.00;84.45
33265;BME280;31404;53.974;-1.086;2023-07-20T23:55:36;101272.47;;;10.41;92.93
